Weather at Lyall Harbour Seaplane Base

Public forecast

Using degrees Celsius for public forecast. Weather courtesy of forecast.io.

Closest aviation weather report (METAR) to Lyall Harbour Seaplane Base

Closest report is Orcas Island Airport, 12.0 nm (22.2 km) ESE.

2024/05/18 23:35 (retrieved 22 minutes ago)

KORS 182335Z AUTO 33007KT 10SM SCT060 SCT070 SCT080 13/07 A3005 RMK AO2

Closest aviation forecast (TAF) to Lyall Harbour Seaplane Base

Closest forecast is Victoria International Airport, 13.2 nm (24.4 km) SW.

2024/05/18 20:41 Ammendment (retrieved 3 hours ago)

TAF AMD CYYJ 182037Z 1820/1918 07010KT P6SM FEW025 BKN140 TEMPO 1820/1903 5SM -SHRA BR BKN020 FM190300 22007KT P6SM SCT050 BECMG 1904/1906 20007KT FM190900 19006KT P6SM BKN030 TEMPO 1909/1918 P6SM -SHRA BKN020 RMK NXT FCST BY 190000Z